Time;durP1;ratioP1;P1;durP2;ratioP2;P2;SDS_P1;SDS_P2;PMS_P1;PMS_P2;Temp;Humidity;BMP_temperature;BMP_pressure;BME280_temperature;BME280_humidity;BME280_pressure;Samples;Min_cycle;Max_cycle;Signal;HPM_P1;HPM_P2
2022/09/21 00:00:06;;;;;;;8.57;4.30;;;12.50;99.90;;;;;;5065922;28;20258;-31
2022/09/21 00:02:33;;;;;;;6.53;4.20;;;12.50;99.90;;;;;;5046848;28;20254;-31
2022/09/21 00:05:01;;;;;;;7.83;4.50;;;12.50;99.90;;;;;;5056942;28;20764;-31
2022/09/21 00:07:28;;;;;;;7.33;4.27;;;12.50;99.90;;;;;;5060935;28;20213;-31
2022/09/21 00:09:58;;;;;;;6.67;4.20;;;12.50;99.90;;;;;;5047021;28;20228;-33
2022/09/21 00:12:30;;;;;;;6.63;3.90;;;12.40;99.90;;;;;;5045491;28;20208;-31
2022/09/21 00:15:02;;;;;;;7.00;4.60;;;12.40;99.90;;;;;;5044839;28;20216;-31
2022/09/21 00:17:32;;;;;;;6.60;4.30;;;12.40;99.90;;;;;;5046175;28;20212;-33
2022/09/21 00:20:04;;;;;;;4.93;4.23;;;12.40;99.90;;;;;;5050876;28;20206;-31
2022/09/21 00:22:33;;;;;;;7.57;3.93;;;12.40;99.90;;;;;;5045126;28;20299;-31
2022/09/21 00:25:03;;;;;;;8.60;4.43;;;12.30;99.90;;;;;;5036426;28;20206;-31
2022/09/21 00:27:33;;;;;;;10.07;5.10;;;12.30;99.90;;;;;;5066291;28;20238;-31
2022/09/21 00:30:02;;;;;;;8.70;6.20;;;12.30;99.90;;;;;;5066815;28;20574;-31
2022/09/21 00:32:30;;;;;;;6.87;5.10;;;12.30;99.90;;;;;;5067063;28;20235;-31
2022/09/21 00:35:01;;;;;;;8.23;6.00;;;12.20;99.90;;;;;;5058618;28;20792;-31
2022/09/21 00:37:33;;;;;;;10.53;6.30;;;12.20;99.90;;;;;;5056649;28;20670;-32
2022/09/21 00:40:02;;;;;;;8.03;5.83;;;12.20;99.90;;;;;;5066411;28;20265;-31
2022/09/21 00:42:36;;;;;;;7.37;5.20;;;12.20;99.90;;;;;;5066735;28;20204;-32
2022/09/21 00:45:07;;;;;;;9.70;6.00;;;12.20;99.90;;;;;;5065693;28;20273;-32
2022/09/21 00:47:43;;;;;;;9.43;6.03;;;12.10;99.90;;;;;;5065583;28;20237;-32
2022/09/21 00:50:14;;;;;;;9.23;5.53;;;12.10;99.90;;;;;;5058762;28;20289;-32
2022/09/21 00:52:52;;;;;;;9.07;5.53;;;12.10;99.90;;;;;;5045684;28;20295;-32
2022/09/21 00:55:54;;;;;;;7.33;5.20;;;12.10;99.90;;;;;;5049668;28;20200;-31
2022/09/21 00:58:29;;;;;;;7.87;5.23;;;12.10;99.90;;;;;;5052286;28;20717;-32
2022/09/21 01:00:58;;;;;;;8.57;5.30;;;12.10;99.90;;;;;;5050473;28;20622;-32
2022/09/21 01:03:28;;;;;;;7.47;4.70;;;12.00;99.90;;;;;;5058995;28;20210;-31
2022/09/21 01:05:58;;;;;;;6.73;4.70;;;12.00;99.90;;;;;;5053146;28;20330;-31
2022/09/21 01:08:33;;;;;;;6.47;4.27;;;12.00;99.90;;;;;;5046774;28;20208;-32
2022/09/21 01:11:24;;;;;;;6.20;4.93;;;12.00;99.90;;;;;;5047340;28;20321;-31
2022/09/21 01:13:53;;;;;;;5.73;4.47;;;12.00;99.90;;;;;;5057522;28;20205;-31
2022/09/21 01:16:47;;;;;;;6.90;4.40;;;11.90;99.90;;;;;;5048479;28;20207;-31
2022/09/21 01:19:33;;;;;;;6.07;4.30;;;11.90;99.90;;;;;;5042146;28;22572;-31
2022/09/21 01:22:17;;;;;;;6.33;4.30;;;11.80;99.90;;;;;;5040664;28;20207;-31
2022/09/21 01:24:47;;;;;;;4.70;4.03;;;11.80;99.90;;;;;;5047101;28;20215;-31
2022/09/21 01:27:19;;;;;;;5.77;4.30;;;11.80;99.90;;;;;;5050949;28;20220;-31
2022/09/21 01:30:09;;;;;;;6.97;4.17;;;11.70;99.90;;;;;;5049470;28;20252;-31
2022/09/21 01:32:41;;;;;;;8.10;4.33;;;11.70;99.90;;;;;;5049629;28;20933;-31
2022/09/21 01:35:25;;;;;;;8.77;4.57;;;11.70;99.90;;;;;;5047266;28;20216;-31
2022/09/21 01:37:55;;;;;;;4.73;3.93;;;11.60;99.90;;;;;;5044444;28;20701;-31
2022/09/21 01:40:49;;;;;;;6.20;4.30;;;11.60;99.90;;;;;;5044253;28;20745;-31
2022/09/21 01:43:26;;;;;;;10.03;4.17;;;11.50;99.90;;;;;;5046397;28;20817;-31
2022/09/21 01:46:00;;;;;;;5.67;4.37;;;11.50;99.90;;;;;;5056795;28;20301;-31
2022/09/21 01:48:34;;;;;;;5.97;4.00;;;11.50;99.90;;;;;;5061459;28;20210;-31
2022/09/21 01:51:08;;;;;;;7.90;4.67;;;11.40;99.90;;;;;;5056268;28;20238;-31
2022/09/21 01:53:45;;;;;;;6.37;4.10;;;11.40;99.90;;;;;;5045263;28;20254;-32
2022/09/21 01:56:19;;;;;;;5.90;4.33;;;11.40;99.90;;;;;;5044584;28;20287;-33
2022/09/21 01:58:55;;;;;;;7.40;4.13;;;11.30;99.90;;;;;;5052066;28;20231;-32
2022/09/21 02:01:30;;;;;;;5.87;4.13;;;11.30;99.90;;;;;;5065333;28;20200;-31
2022/09/21 02:04:07;;;;;;;5.77;4.07;;;11.30;99.90;;;;;;5061802;28;20199;-31
2022/09/21 02:06:37;;;;;;;5.67;4.00;;;11.30;99.90;;;;;;5064160;28;20210;-32
2022/09/21 02:09:07;;;;;;;5.30;3.93;;;11.20;99.90;;;;;;5057191;28;20204;-31
2022/09/21 02:11:43;;;;;;;7.53;3.90;;;11.20;99.90;;;;;;5045425;28;20195;-31
2022/09/21 02:14:15;;;;;;;6.20;3.90;;;11.20;99.90;;;;;;5043472;28;20663;-32
2022/09/21 02:17:10;;;;;;;9.43;4.07;;;11.20;99.90;;;;;;5046058;28;20222;-32
2022/09/21 02:19:42;;;;;;;9.03;4.40;;;11.20;99.90;;;;;;5045728;28;20211;-32
2022/09/21 02:22:28;;;;;;;6.33;3.80;;;11.10;99.90;;;;;;5046171;28;20246;-31
2022/09/21 02:25:04;;;;;;;5.37;4.37;;;11.10;99.90;;;;;;5063847;28;20207;-31
2022/09/21 02:27:51;;;;;;;7.20;4.30;;;11.10;99.90;;;;;;5068797;28;20206;-31
2022/09/21 02:30:26;;;;;;;6.87;4.33;;;11.10;99.90;;;;;;5067564;28;20242;-33
2022/09/21 02:33:05;;;;;;;6.37;4.30;;;11.10;99.90;;;;;;5058896;28;20739;-31
2022/09/21 02:36:01;;;;;;;6.80;4.00;;;11.10;99.90;;;;;;5049371;28;20212;-32
2022/09/21 02:38:52;;;;;;;6.93;4.60;;;11.00;99.90;;;;;;5056868;28;20694;-31
2022/09/21 02:41:40;;;;;;;4.47;3.63;;;11.00;99.90;;;;;;5068947;28;20697;-32
2022/09/21 02:44:19;;;;;;;7.03;4.60;;;11.00;99.90;;;;;;5069306;28;20195;-32
2022/09/21 02:47:15;;;;;;;11.30;6.20;;;11.00;99.90;;;;;;5059447;28;20261;-31
2022/09/21 02:49:50;;;;;;;17.57;9.50;;;11.00;99.90;;;;;;5049455;28;20219;-31
2022/09/21 02:52:18;;;;;;;16.03;9.20;;;11.00;99.90;;;;;;5057061;28;20227;-31
2022/09/21 02:54:51;;;;;;;13.93;7.67;;;11.00;99.90;;;;;;5049825;28;20715;-33
2022/09/21 02:57:23;;;;;;;18.43;9.10;;;11.00;99.90;;;;;;5049578;28;20542;-32
2022/09/21 02:59:51;;;;;;;12.60;8.43;;;11.00;99.90;;;;;;5066599;28;20227;-31
2022/09/21 03:02:18;;;;;;;12.00;7.33;;;11.00;99.90;;;;;;5050788;28;20214;-31
2022/09/21 03:04:47;;;;;;;16.80;9.43;;;11.00;99.90;;;;;;5061222;28;20207;-31
2022/09/21 03:07:22;;;;;;;16.77;9.80;;;11.00;99.90;;;;;;5048935;28;20226;-32
2022/09/21 03:09:53;;;;;;;15.30;8.77;;;11.00;99.90;;;;;;5060048;28;20216;-31
2022/09/21 03:12:21;;;;;;;12.63;8.30;;;11.00;99.90;;;;;;5048877;28;20199;-33
2022/09/21 03:14:50;;;;;;;11.37;7.03;;;11.00;99.90;;;;;;5046186;28;20200;-32
2022/09/21 03:17:19;;;;;;;8.90;6.40;;;11.00;99.90;;;;;;5047785;28;20238;-33
2022/09/21 03:19:46;;;;;;;8.67;6.90;;;10.90;99.90;;;;;;5056125;28;20219;-31
2022/09/21 03:22:16;;;;;;;11.67;7.67;;;11.00;99.90;;;;;;5067650;28;20203;-33
2022/09/21 03:24:46;;;;;;;34.53;18.83;;;10.90;99.90;;;;;;5051721;28;20240;-31
2022/09/21 03:27:20;;;;;;;20.23;13.90;;;10.90;99.90;;;;;;5052726;28;20294;-34
2022/09/21 03:29:48;;;;;;;15.47;10.13;;;10.90;99.90;;;;;;5067709;28;20727;-33
2022/09/21 03:32:15;;;;;;;11.60;7.57;;;10.90;99.90;;;;;;5066361;28;20658;-33
2022/09/21 03:34:45;;;;;;;11.97;6.57;;;10.90;99.90;;;;;;5064938;28;20198;-32
2022/09/21 03:37:12;;;;;;;7.00;5.53;;;10.80;99.90;;;;;;5053940;28;20191;-32
2022/09/21 03:39:42;;;;;;;9.23;5.93;;;10.80;99.90;;;;;;5065090;28;20574;-32
2022/09/21 03:42:12;;;;;;;13.77;8.23;;;10.80;99.90;;;;;;5057866;28;20226;-31
2022/09/21 03:44:44;;;;;;;17.43;9.70;;;10.80;99.90;;;;;;5048214;28;20695;-31
2022/09/21 03:47:11;;;;;;;13.37;8.30;;;10.80;99.90;;;;;;5067937;28;20200;-32
2022/09/21 03:49:41;;;;;;;10.50;6.73;;;10.70;99.90;;;;;;5059867;28;20758;-31
2022/09/21 03:52:11;;;;;;;12.07;7.10;;;10.70;99.90;;;;;;5066200;28;20222;-31
2022/09/21 03:54:38;;;;;;;6.67;5.20;;;10.70;99.90;;;;;;5050564;28;20211;-31
2022/09/21 03:57:05;;;;;;;8.37;5.77;;;10.70;99.90;;;;;;5047220;28;20213;-33
2022/09/21 03:59:37;;;;;;;6.80;4.67;;;10.60;99.90;;;;;;5053517;28;20520;-32
2022/09/21 04:02:07;;;;;;;8.10;5.27;;;10.60;99.90;;;;;;5056486;28;20215;-32
2022/09/21 04:04:34;;;;;;;13.17;8.20;;;10.60;99.90;;;;;;5058350;28;20211;-32
2022/09/21 04:07:01;;;;;;;14.40;7.93;;;10.60;99.90;;;;;;5053446;28;20203;-33
2022/09/21 04:09:33;;;;;;;10.20;6.40;;;10.60;99.90;;;;;;5053548;28;20332;-32
2022/09/21 04:12:02;;;;;;;8.50;5.60;;;10.50;99.90;;;;;;5051047;28;20195;-32
2022/09/21 04:14:32;;;;;;;6.87;5.60;;;10.50;99.90;;;;;;5066835;28;20200;-31
2022/09/21 04:17:01;;;;;;;7.20;5.80;;;10.50;99.90;;;;;;5046260;28;20204;-33
2022/09/21 04:19:29;;;;;;;6.53;5.10;;;10.50;99.90;;;;;;5062384;28;20223;-32
2022/09/21 04:21:58;;;;;;;9.83;6.57;;;10.40;99.90;;;;;;5046053;28;20687;-32
2022/09/21 04:24:26;;;;;;;10.00;6.60;;;10.50;99.90;;;;;;5083143;28;20213;-32
2022/09/21 04:26:57;;;;;;;7.90;6.00;;;10.50;99.90;;;;;;5051995;28;20254;-32
2022/09/21 04:29:25;;;;;;;11.93;6.83;;;10.40;99.90;;;;;;5065881;28;20204;-33
2022/09/21 04:31:52;;;;;;;9.43;6.57;;;10.40;99.90;;;;;;5066966;28;20223;-32
2022/09/21 04:34:22;;;;;;;8.63;5.97;;;10.40;99.90;;;;;;5065750;28;20717;-32
2022/09/21 04:36:49;;;;;;;11.30;6.70;;;10.40;99.90;;;;;;5047736;28;20303;-33
2022/09/21 04:39:18;;;;;;;14.87;9.17;;;10.40;99.90;;;;;;5063501;28;20202;-32
2022/09/21 04:41:48;;;;;;;20.27;12.67;;;10.30;99.90;;;;;;5047232;28;20204;-32
2022/09/21 04:44:20;;;;;;;15.90;10.43;;;10.30;99.90;;;;;;5045366;28;20623;-31
2022/09/21 04:46:48;;;;;;;13.13;8.00;;;10.30;99.90;;;;;;5046109;28;20222;-32
2022/09/21 04:49:15;;;;;;;10.43;6.73;;;10.20;99.90;;;;;;5047888;28;20576;-32
2022/09/21 04:51:44;;;;;;;10.67;6.70;;;10.20;99.90;;;;;;5051589;28;20223;-32
2022/09/21 04:54:15;;;;;;;10.50;6.63;;;10.20;99.90;;;;;;5058468;28;20682;-32
2022/09/21 04:56:45;;;;;;;13.10;7.90;;;10.20;99.90;;;;;;5063834;28;20203;-32
2022/09/21 04:59:16;;;;;;;15.47;8.37;;;10.20;99.90;;;;;;5054693;28;20313;-32
2022/09/21 05:01:44;;;;;;;12.37;7.97;;;10.10;99.90;;;;;;5046460;28;20209;-32
2022/09/21 05:04:11;;;;;;;16.53;8.60;;;10.10;99.90;;;;;;5064232;28;20216;-32
2022/09/21 05:06:40;;;;;;;14.57;9.17;;;10.10;99.90;;;;;;5062760;28;20367;-31
2022/09/21 05:11:56;;;;;;;12.80;8.23;;;10.10;99.90;;;;;;5047338;28;20227;-30
2022/09/21 05:14:26;;;;;;;10.10;7.10;;;10.00;99.90;;;;;;5044476;28;20335;-32
2022/09/21 05:16:53;;;;;;;13.87;8.37;;;10.00;99.90;;;;;;5049824;28;20201;-33
2022/09/21 05:19:23;;;;;;;12.03;7.27;;;10.00;99.90;;;;;;5049715;28;20208;-32
2022/09/21 05:21:50;;;;;;;12.47;7.27;;;10.00;99.90;;;;;;5048570;28;20223;-31
2022/09/21 05:24:17;;;;;;;7.60;5.57;;;10.00;99.90;;;;;;5051054;28;20295;-31
2022/09/21 05:26:47;;;;;;;7.60;5.20;;;10.00;99.90;;;;;;5052901;28;20248;-32
2022/09/21 05:29:14;;;;;;;7.40;5.00;;;10.00;99.90;;;;;;5051535;28;20206;-31
2022/09/21 05:31:56;;;;;;;9.73;5.93;;;10.00;99.90;;;;;;5054767;28;20312;-32
2022/09/21 05:34:46;;;;;;;9.13;6.07;;;10.00;99.90;;;;;;5056319;28;20208;-31
2022/09/21 05:37:28;;;;;;;7.03;5.60;;;10.00;99.90;;;;;;5060865;28;20295;-32
2022/09/21 05:39:58;;;;;;;8.53;5.80;;;9.90;99.90;;;;;;5046045;28;20212;-33
2022/09/21 05:42:26;;;;;;;9.93;6.13;;;9.90;99.90;;;;;;5045110;28;20608;-31
2022/09/21 05:44:54;;;;;;;8.93;5.90;;;9.90;99.90;;;;;;5048661;28;20211;-31
2022/09/21 05:47:46;;;;;;;10.00;5.20;;;9.90;99.90;;;;;;5046244;28;20643;-33
2022/09/21 05:50:40;;;;;;;6.90;4.67;;;9.90;99.90;;;;;;5053122;28;20220;-32
2022/09/21 05:53:58;;;;;;;8.57;5.87;;;9.90;99.90;;;;;;5052734;28;20215;-33
2022/09/21 05:56:43;;;;;;;12.07;7.33;;;9.90;99.90;;;;;;5048714;28;20360;-32
2022/09/21 05:59:22;;;;;;;14.50;9.77;;;9.90;99.90;;;;;;5062444;28;20330;-31
2022/09/21 06:02:22;;;;;;;18.60;10.30;;;9.90;99.90;;;;;;5044818;28;20213;-31
2022/09/21 06:04:54;;;;;;;16.63;10.00;;;9.90;99.90;;;;;;5041921;28;20212;-31
2022/09/21 06:07:24;;;;;;;19.93;10.30;;;9.90;99.90;;;;;;5048846;28;20212;-31
2022/09/21 06:09:54;;;;;;;27.33;12.50;;;9.90;99.90;;;;;;5052685;28;20274;-31
2022/09/21 06:12:25;;;;;;;23.97;12.93;;;9.90;99.90;;;;;;5054266;28;20199;-31
2022/09/21 06:14:54;;;;;;;27.63;14.90;;;9.90;99.90;;;;;;5056683;28;20655;-32
2022/09/21 06:17:22;;;;;;;28.60;13.93;;;9.90;99.90;;;;;;5048870;28;20654;-32
2022/09/21 06:19:52;;;;;;;30.03;14.17;;;9.90;99.90;;;;;;5055778;28;20670;-33
2022/09/21 06:22:27;;;;;;;22.73;9.80;;;10.00;99.90;;;;;;5051173;28;20222;-34
2022/09/21 06:24:56;;;;;;;26.93;10.50;;;10.00;99.90;;;;;;5065209;28;20207;-32
2022/09/21 06:27:28;;;;;;;32.37;15.23;;;10.00;99.90;;;;;;5059816;28;20638;-32
2022/09/21 06:29:56;;;;;;;36.33;20.53;;;10.00;99.90;;;;;;5064408;28;20302;-32
2022/09/21 06:32:25;;;;;;;36.63;18.67;;;10.10;99.90;;;;;;5056258;28;20235;-32
2022/09/21 06:34:52;;;;;;;22.87;13.57;;;10.10;99.90;;;;;;5056351;28;20618;-32
2022/09/21 06:37:22;;;;;;;24.43;13.77;;;10.10;99.90;;;;;;5044282;28;20973;-33
2022/09/21 06:39:51;;;;;;;24.50;13.83;;;10.10;99.90;;;;;;5048814;28;20211;-33
2022/09/21 06:42:18;;;;;;;26.10;12.20;;;10.10;99.90;;;;;;5048351;28;20211;-32
2022/09/21 06:44:52;;;;;;;22.27;11.10;;;10.10;99.90;;;;;;5056992;28;20665;-32
2022/09/21 06:47:20;;;;;;;21.50;10.53;;;10.10;99.90;;;;;;5049790;28;20204;-32
2022/09/21 06:49:52;;;;;;;24.00;10.23;;;10.20;99.90;;;;;;5049949;28;20243;-33
2022/09/21 06:52:19;;;;;;;15.90;9.57;;;10.20;99.90;;;;;;5049552;28;20932;-32
2022/09/21 06:54:47;;;;;;;17.03;9.67;;;10.20;99.90;;;;;;5065039;28;20717;-32
2022/09/21 06:57:14;;;;;;;17.83;8.47;;;10.30;99.90;;;;;;5053555;28;20296;-32
2022/09/21 06:59:41;;;;;;;17.80;8.63;;;10.30;99.90;;;;;;5056995;28;20245;-32
2022/09/21 07:02:13;;;;;;;12.77;7.93;;;10.30;99.90;;;;;;5049380;28;20204;-33
2022/09/21 07:04:40;;;;;;;14.97;7.20;;;10.30;99.90;;;;;;5060732;28;20203;-32
2022/09/21 07:07:10;;;;;;;12.67;6.80;;;10.30;99.90;;;;;;5051096;28;20668;-32
2022/09/21 07:09:40;;;;;;;11.33;7.07;;;10.30;99.90;;;;;;5045844;28;20594;-32
2022/09/21 07:12:33;;;;;;;12.73;7.63;;;10.40;99.90;;;;;;5077748;28;20227;-32
2022/09/21 07:15:02;;;;;;;12.03;7.00;;;10.40;99.90;;;;;;5083523;28;20287;-32
2022/09/21 07:17:37;;;;;;;11.83;6.90;;;10.40;99.90;;;;;;5055023;28;20217;-32
2022/09/21 07:20:06;;;;;;;13.50;7.00;;;10.50;99.90;;;;;;5056683;28;20205;-32
2022/09/21 07:22:35;;;;;;;12.57;7.30;;;10.50;99.90;;;;;;5062164;28;20208;-32
2022/09/21 07:25:05;;;;;;;12.63;7.93;;;10.50;99.90;;;;;;5062205;28;20216;-32
2022/09/21 07:27:33;;;;;;;13.33;8.20;;;10.60;99.90;;;;;;5060964;28;20210;-32
2022/09/21 07:30:03;;;;;;;15.13;8.30;;;10.60;99.90;;;;;;5064041;28;20196;-32
2022/09/21 07:32:32;;;;;;;14.53;8.77;;;10.60;99.90;;;;;;5050630;28;20495;-32
2022/09/21 07:35:00;;;;;;;12.13;8.37;;;10.70;99.90;;;;;;5065265;28;20203;-32
2022/09/21 07:37:29;;;;;;;15.30;9.33;;;10.70;99.90;;;;;;5066595;28;20571;-32
2022/09/21 07:40:02;;;;;;;15.80;9.37;;;10.80;99.90;;;;;;5074236;28;20200;-32
2022/09/21 07:42:32;;;;;;;16.80;9.80;;;10.80;99.90;;;;;;5058832;28;20296;-32
2022/09/21 07:45:01;;;;;;;17.67;10.17;;;10.80;99.90;;;;;;5061043;28;20196;-32
2022/09/21 07:47:33;;;;;;;17.67;10.93;;;10.90;99.90;;;;;;5056654;28;20235;-32
2022/09/21 07:50:00;;;;;;;17.20;10.30;;;10.90;99.90;;;;;;5051382;28;20208;-32
2022/09/21 07:52:27;;;;;;;13.70;10.23;;;11.00;99.90;;;;;;5054329;28;20705;-32
2022/09/21 07:54:59;;;;;;;19.07;10.80;;;11.00;99.90;;;;;;5057241;28;20204;-32
2022/09/21 08:00:19;;;;;;;16.23;11.00;;;11.20;99.90;;;;;;5046438;28;20623;-32
2022/09/21 08:02:49;;;;;;;18.23;11.37;;;11.30;99.90;;;;;;5051374;28;20204;-32
2022/09/21 08:05:16;;;;;;;13.70;10.47;;;11.30;99.90;;;;;;5052875;28;20675;-32
2022/09/21 08:07:45;;;;;;;17.83;10.63;;;11.40;99.90;;;;;;5057052;28;20216;-32
2022/09/21 08:10:15;;;;;;;15.50;10.90;;;11.50;99.90;;;;;;5046977;28;20216;-32
2022/09/21 08:12:45;;;;;;;15.00;9.57;;;11.60;99.90;;;;;;5046599;28;20760;-32
2022/09/21 08:15:13;;;;;;;11.07;9.30;;;11.70;99.90;;;;;;5052014;28;20200;-32
2022/09/21 08:18:06;;;;;;;11.53;8.50;;;11.80;99.90;;;;;;5051946;28;20227;-32
2022/09/21 08:20:33;;;;;;;13.23;9.17;;;11.90;99.90;;;;;;5052361;28;21028;-32
2022/09/21 08:23:03;;;;;;;13.63;9.37;;;12.00;99.90;;;;;;5052182;28;20215;-32
2022/09/21 08:25:34;;;;;;;14.50;10.00;;;12.10;99.90;;;;;;5052203;28;20212;-32
2022/09/21 08:28:06;;;;;;;11.37;9.40;;;12.20;99.90;;;;;;5053994;28;20270;-32
2022/09/21 08:30:36;;;;;;;13.37;9.00;;;12.20;99.90;;;;;;5055998;28;20232;-32
2022/09/21 08:33:05;;;;;;;13.07;8.80;;;12.30;99.90;;;;;;5047570;28;20242;-32
2022/09/21 08:35:33;;;;;;;12.93;10.10;;;12.40;99.90;;;;;;5050678;28;20314;-32
2022/09/21 08:38:00;;;;;;;13.50;9.73;;;12.50;99.90;;;;;;5045831;28;20196;-32
2022/09/21 08:40:31;;;;;;;11.80;9.17;;;12.60;99.90;;;;;;5046422;28;20586;-32
2022/09/21 08:43:12;;;;;;;11.87;8.67;;;12.60;99.90;;;;;;5050989;28;20200;-32
2022/09/21 08:45:43;;;;;;;14.07;9.73;;;12.70;99.90;;;;;;5045479;28;20223;-33
2022/09/21 08:48:21;;;;;;;13.03;9.17;;;12.80;99.90;;;;;;5056059;28;20278;-33
2022/09/21 08:51:05;;;;;;;10.47;7.97;;;12.90;99.90;;;;;;5046668;28;20216;-32
2022/09/21 08:53:45;;;;;;;16.63;8.37;;;13.00;99.90;;;;;;5050187;28;20761;-33
2022/09/21 08:56:15;;;;;;;12.00;8.80;;;13.10;99.90;;;;;;5059271;28;20221;-32
2022/09/21 08:58:42;;;;;;;11.97;8.17;;;13.10;99.90;;;;;;5051238;28;20326;-33
2022/09/21 09:01:19;;;;;;;11.33;7.80;;;13.20;99.90;;;;;;5049718;28;20683;-33
2022/09/21 09:04:01;;;;;;;12.97;6.87;;;13.30;99.90;;;;;;5053463;28;20222;-33
2022/09/21 09:06:56;;;;;;;10.97;7.30;;;13.40;99.90;;;;;;5048258;28;20649;-33
2022/09/21 09:09:54;;;;;;;9.83;6.67;;;13.40;99.90;;;;;;5056284;28;20199;-33
2022/09/21 09:12:24;;;;;;;10.27;6.17;;;13.50;99.90;;;;;;5055159;28;20220;-33
2022/09/21 09:15:06;;;;;;;7.67;6.33;;;13.50;99.90;;;;;;5053218;28;20204;-33
2022/09/21 09:17:39;;;;;;;8.97;6.10;;;13.60;99.90;;;;;;5059278;28;20651;-33
2022/09/21 09:20:14;;;;;;;10.10;6.20;;;13.70;99.90;;;;;;5042384;28;21389;-33
2022/09/21 09:23:04;;;;;;;8.87;5.30;;;13.80;99.90;;;;;;5055890;28;20220;-33
2022/09/21 09:25:40;;;;;;;8.20;5.70;;;13.80;99.90;;;;;;5046630;28;20203;-33
2022/09/21 09:28:21;;;;;;;8.80;5.43;;;13.90;99.90;;;;;;5061909;28;20210;-33
2022/09/21 09:30:56;;;;;;;7.40;4.53;;;13.90;99.90;;;;;;5044852;28;20222;-33
2022/09/21 09:33:29;;;;;;;9.23;4.70;;;14.00;99.90;;;;;;5045955;28;20207;-34
2022/09/21 09:36:04;;;;;;;8.07;4.50;;;14.00;99.90;;;;;;5051604;28;20203;-33
2022/09/21 09:38:34;;;;;;;6.03;3.57;;;14.10;99.90;;;;;;5046523;28;20230;-32
2022/09/21 09:41:10;;;;;;;5.93;3.00;;;14.20;99.90;;;;;;5046932;28;20194;-32
2022/09/21 09:44:00;;;;;;;7.27;3.63;;;14.20;99.90;;;;;;5059035;28;20614;-33
2022/09/21 09:46:38;;;;;;;6.63;3.27;;;14.30;99.90;;;;;;5043407;28;20235;-33
2022/09/21 09:49:24;;;;;;;6.60;3.23;;;14.30;99.90;;;;;;5048883;28;20213;-33
2022/09/21 09:51:53;;;;;;;6.43;3.23;;;14.40;99.90;;;;;;5052258;28;20782;-33
2022/09/21 09:54:25;;;;;;;4.13;2.50;;;14.40;99.90;;;;;;5048779;28;20294;-33
2022/09/21 09:56:55;;;;;;;6.03;3.70;;;14.50;99.90;;;;;;5047741;28;20208;-33
2022/09/21 09:59:30;;;;;;;6.27;2.50;;;14.50;99.90;;;;;;5058543;28;20566;-34
2022/09/21 10:02:05;;;;;;;4.77;2.20;;;14.60;99.90;;;;;;5060109;28;20203;-34
2022/09/21 10:04:35;;;;;;;5.87;1.70;;;14.70;99.90;;;;;;5048194;28;20210;-38
2022/09/21 10:07:03;;;;;;;3.90;1.90;;;14.70;99.90;;;;;;5053410;28;20298;-33
2022/09/21 10:09:32;;;;;;;5.27;1.77;;;14.80;99.90;;;;;;5056316;28;20211;-33
2022/09/21 10:12:21;;;;;;;5.77;1.57;;;14.80;99.90;;;;;;5044631;28;20235;-33
2022/09/21 10:14:51;;;;;;;4.40;1.40;;;14.90;99.90;;;;;;5048161;28;20598;-33
2022/09/21 10:17:23;;;;;;;3.37;1.70;;;14.90;99.90;;;;;;5056606;28;20286;-34
2022/09/21 10:20:01;;;;;;;4.07;1.80;;;15.00;99.90;;;;;;5060079;28;20629;-34
2022/09/21 10:22:31;;;;;;;4.37;1.70;;;15.00;99.90;;;;;;5049880;28;20207;-32
2022/09/21 10:25:04;;;;;;;4.40;1.37;;;15.10;99.90;;;;;;5043298;28;20200;-32
2022/09/21 10:27:43;;;;;;;2.73;1.10;;;15.20;99.90;;;;;;5048492;28;20256;-32
2022/09/21 10:30:28;;;;;;;5.77;1.50;;;15.20;99.90;;;;;;5047849;28;20426;-32
2022/09/21 10:33:00;;;;;;;3.30;1.30;;;15.30;99.90;;;;;;5051250;28;20966;-32
2022/09/21 10:35:27;;;;;;;2.93;1.20;;;15.30;99.90;;;;;;5044846;28;20195;-32
2022/09/21 10:38:10;;;;;;;5.50;1.50;;;15.40;99.90;;;;;;5061324;28;20211;-32
2022/09/21 10:40:38;;;;;;;9.93;2.63;;;15.40;99.90;;;;;;5053062;28;20214;-32
2022/09/21 10:43:41;;;;;;;6.87;1.40;;;15.40;99.90;;;;;;5055190;28;20217;-32
2022/09/21 10:46:15;;;;;;;5.07;1.30;;;15.50;99.90;;;;;;5051331;28;20208;-32
2022/09/21 10:48:46;;;;;;;4.40;1.33;;;15.60;99.90;;;;;;5065363;28;20813;-32
2022/09/21 10:51:28;;;;;;;3.53;1.43;;;15.60;99.90;;;;;;5053632;28;20202;-32
2022/09/21 10:53:57;;;;;;;5.63;1.53;;;15.80;99.90;;;;;;5051338;28;20766;-32
2022/09/21 10:56:25;;;;;;;8.10;1.63;;;15.90;99.90;;;;;;5060723;28;20266;-32
2022/09/21 10:59:13;;;;;;;5.17;1.30;;;16.00;99.90;;;;;;5057749;28;20724;-32
2022/09/21 11:01:45;;;;;;;3.17;1.20;;;16.10;99.90;;;;;;5051032;28;20196;-32
2022/09/21 11:04:35;;;;;;;3.83;1.03;;;16.20;99.90;;;;;;5044923;28;20269;-32
2022/09/21 11:07:10;;;;;;;6.50;1.70;;;16.30;99.90;;;;;;5049232;28;20226;-31
2022/09/21 11:09:59;;;;;;;2.53;1.53;;;16.40;99.90;;;;;;5059488;28;20207;-32
2022/09/21 11:12:42;;;;;;;6.27;2.10;;;16.50;99.90;;;;;;5055101;28;20220;-32
2022/09/21 11:15:23;;;;;;;4.57;1.57;;;16.60;99.90;;;;;;5047818;28;20698;-32
2022/09/21 11:18:20;;;;;;;5.00;2.33;;;16.80;99.90;;;;;;5046528;28;20196;-32
2022/09/21 11:20:58;;;;;;;4.80;1.87;;;16.90;99.90;;;;;;5052741;28;20210;-32
2022/09/21 11:23:40;;;;;;;2.90;1.60;;;17.00;99.90;;;;;;5048148;28;20602;-32
2022/09/21 11:26:26;;;;;;;5.73;1.63;;;17.10;99.90;;;;;;5067067;28;20751;-32
2022/09/21 11:29:11;;;;;;;6.43;1.70;;;17.20;99.90;;;;;;5055234;28;20204;-33
2022/09/21 11:31:51;;;;;;;3.70;1.40;;;17.30;99.90;;;;;;5058935;28;20215;-32
2022/09/21 11:34:48;;;;;;;3.17;1.40;;;17.30;99.90;;;;;;5063866;28;20199;-33
2022/09/21 11:37:47;;;;;;;4.30;1.57;;;17.40;99.90;;;;;;5055967;28;20206;-33
2022/09/21 11:41:00;;;;;;;4.73;1.23;;;17.50;99.90;;;;;;5054453;28;20250;-32
2022/09/21 11:43:48;;;;;;;3.93;2.07;;;17.50;99.90;;;;;;5036174;28;20204;-33
2022/09/21 11:46:37;;;;;;;2.63;1.10;;;17.40;99.90;;;;;;5047452;28;20206;-33
2022/09/21 11:49:41;;;;;;;2.17;1.40;;;17.40;99.90;;;;;;5057192;28;20219;-33
2022/09/21 11:52:46;;;;;;;4.00;1.77;;;17.50;99.90;;;;;;5062134;28;20246;-33
2022/09/21 11:55:24;;;;;;;4.73;1.67;;;17.50;99.90;;;;;;5058385;28;20696;-33
2022/09/21 11:57:58;;;;;;;6.37;1.37;;;17.50;99.90;;;;;;5048870;28;21293;-33
2022/09/21 12:00:32;;;;;;;3.23;1.20;;;17.60;99.90;;;;;;5048413;28;20298;-33
2022/09/21 12:03:26;;;;;;;3.00;1.00;;;17.60;99.90;;;;;;5046579;28;20195;-33
2022/09/21 12:06:02;;;;;;;2.17;0.87;;;17.60;99.90;;;;;;5066234;28;20304;-33
2022/09/21 12:08:49;;;;;;;5.53;1.13;;;17.60;99.90;;;;;;5068312;28;20195;-31
2022/09/21 12:11:36;;;;;;;2.50;0.83;;;17.70;99.90;;;;;;5065763;28;20258;-31
2022/09/21 12:14:10;;;;;;;3.03;1.10;;;17.80;99.90;;;;;;5059118;28;20220;-31
2022/09/21 12:16:41;;;;;;;3.20;0.80;;;17.80;99.90;;;;;;5048526;28;20962;-31
2022/09/21 12:19:32;;;;;;;4.07;0.70;;;17.80;99.90;;;;;;5062771;28;20227;-31
2022/09/21 12:22:25;;;;;;;4.17;0.90;;;17.90;99.90;;;;;;5052812;28;20203;-31
2022/09/21 12:25:15;;;;;;;1.38;0.70;;;17.90;99.90;;;;;;5068148;28;20210;-31
2022/09/21 12:27:46;;;;;;;1.53;0.73;;;18.00;99.90;;;;;;5060856;28;20756;-30
2022/09/21 12:30:23;;;;;;;1.80;0.63;;;18.00;99.90;;;;;;5047682;28;20204;-31
2022/09/21 12:33:14;;;;;;;3.20;0.77;;;18.10;99.90;;;;;;5060712;28;20622;-31
2022/09/21 12:35:53;;;;;;;2.23;0.70;;;18.20;99.90;;;;;;5064638;28;20264;-31
2022/09/21 12:38:26;;;;;;;3.43;0.80;;;18.20;99.90;;;;;;5056286;28;20192;-31
2022/09/21 12:41:08;;;;;;;1.97;0.60;;;18.20;99.90;;;;;;5060687;28;20331;-32
2022/09/21 12:44:15;;;;;;;2.03;0.60;;;18.30;99.90;;;;;;5046829;28;20612;-33
2022/09/21 12:47:08;;;;;;;0.83;0.50;;;18.30;99.90;;;;;;5060637;28;20204;-33
2022/09/21 12:49:47;;;;;;;2.57;0.77;;;18.40;99.90;;;;;;5064224;28;20261;-33
2022/09/21 12:52:24;;;;;;;1.40;0.83;;;18.40;99.90;;;;;;5056258;28;20227;-33
2022/09/21 12:55:04;;;;;;;3.63;0.80;;;18.40;99.90;;;;;;5056901;28;20202;-33
2022/09/21 12:57:59;;;;;;;3.20;0.90;;;18.50;99.90;;;;;;5061565;28;20641;-33
2022/09/21 13:01:08;;;;;;;1.60;0.80;;;18.50;99.90;;;;;;5067553;28;20207;-33
2022/09/21 13:04:16;;;;;;;3.87;0.83;;;18.50;99.90;;;;;;5058545;28;20212;-33
2022/09/21 13:07:08;;;;;;;2.13;0.67;;;18.50;99.90;;;;;;5052179;28;20288;-33
2022/09/21 13:09:41;;;;;;;3.93;1.10;;;18.50;99.90;;;;;;5065691;28;20261;-33
2022/09/21 13:12:23;;;;;;;3.30;1.03;;;18.60;99.90;;;;;;5066242;28;20315;-33
2022/09/21 13:15:03;;;;;;;3.23;0.90;;;18.60;99.90;;;;;;5066008;28;20464;-33
2022/09/21 13:17:32;;;;;;;3.33;0.67;;;18.70;99.90;;;;;;5063790;28;20218;-33
2022/09/21 13:20:17;;;;;;;2.25;0.77;;;18.70;99.90;;;;;;5055475;28;20287;-33
2022/09/21 13:22:48;;;;;;;2.00;0.83;;;18.70;99.90;;;;;;5055140;28;20248;-33
2022/09/21 13:25:26;;;;;;;2.50;0.60;;;18.70;99.90;;;;;;5051194;28;20200;-34
2022/09/21 13:28:03;;;;;;;3.67;0.80;;;18.70;99.90;;;;;;5051854;28;20203;-33
2022/09/21 13:31:07;;;;;;;6.23;0.97;;;18.70;99.90;;;;;;5057838;28;20670;-33